sensor_id;sensor_type;location;lat;lon;timestamp;P1;durP1;ratioP1;P2;durP2;ratioP2
31732;SDS011;18312;51.486;7.144;2022-12-11T00:01:45;71.55;;;20.55;;
31732;SDS011;18312;51.486;7.144;2022-12-11T00:04:11;81.70;;;21.10;;
31732;SDS011;18312;51.486;7.144;2022-12-11T00:06:38;80.43;;;20.95;;
31732;SDS011;18312;51.486;7.144;2022-12-11T00:09:06;77.18;;;20.77;;
31732;SDS011;18312;51.486;7.144;2022-12-11T00:11:33;72.72;;;22.00;;
31732;SDS011;18312;51.486;7.144;2022-12-11T00:14:01;102.18;;;23.08;;
31732;SDS011;18312;51.486;7.144;2022-12-11T00:16:28;76.05;;;20.15;;
31732;SDS011;18312;51.486;7.144;2022-12-11T00:18:54;90.25;;;23.15;;
31732;SDS011;18312;51.486;7.144;2022-12-11T00:21:21;85.30;;;23.02;;
31732;SDS011;18312;51.486;7.144;2022-12-11T00:23:48;98.05;;;22.80;;
31732;SDS011;18312;51.486;7.144;2022-12-11T00:26:15;94.28;;;23.63;;
31732;SDS011;18312;51.486;7.144;2022-12-11T00:28:42;87.30;;;23.45;;
31732;SDS011;18312;51.486;7.144;2022-12-11T00:31:12;84.90;;;22.13;;
31732;SDS011;18312;51.486;7.144;2022-12-11T00:33:41;88.93;;;22.35;;
31732;SDS011;18312;51.486;7.144;2022-12-11T00:36:10;91.35;;;22.75;;
31732;SDS011;18312;51.486;7.144;2022-12-11T00:38:37;83.55;;;22.67;;
31732;SDS011;18312;51.486;7.144;2022-12-11T00:41:04;84.28;;;22.83;;
31732;SDS011;18312;51.486;7.144;2022-12-11T00:43:31;90.65;;;22.05;;
31732;SDS011;18312;51.486;7.144;2022-12-11T00:45:57;85.25;;;22.88;;
31732;SDS011;18312;51.486;7.144;2022-12-11T00:48:26;91.38;;;23.55;;
31732;SDS011;18312;51.486;7.144;2022-12-11T00:50:52;112.43;;;27.45;;
31732;SDS011;18312;51.486;7.144;2022-12-11T00:53:19;112.68;;;25.05;;
31732;SDS011;18312;51.486;7.144;2022-12-11T00:55:46;96.38;;;24.42;;
31732;SDS011;18312;51.486;7.144;2022-12-11T00:58:13;91.93;;;23.10;;
31732;SDS011;18312;51.486;7.144;2022-12-11T01:00:40;99.93;;;24.33;;
31732;SDS011;18312;51.486;7.144;2022-12-11T01:03:07;95.10;;;21.98;;
31732;SDS011;18312;51.486;7.144;2022-12-11T01:05:36;106.10;;;24.92;;
31732;SDS011;18312;51.486;7.144;2022-12-11T01:08:03;102.95;;;25.15;;
31732;SDS011;18312;51.486;7.144;2022-12-11T01:10:30;113.25;;;25.73;;
31732;SDS011;18312;51.486;7.144;2022-12-11T01:12:58;112.22;;;23.45;;
31732;SDS011;18312;51.486;7.144;2022-12-11T01:15:27;90.78;;;22.65;;
31732;SDS011;18312;51.486;7.144;2022-12-11T01:17:55;110.43;;;25.67;;
31732;SDS011;18312;51.486;7.144;2022-12-11T01:20:23;117.70;;;25.38;;
31732;SDS011;18312;51.486;7.144;2022-12-11T01:22:52;112.03;;;25.23;;
31732;SDS011;18312;51.486;7.144;2022-12-11T01:25:19;103.18;;;26.30;;
31732;SDS011;18312;51.486;7.144;2022-12-11T01:27:48;109.18;;;23.80;;
31732;SDS011;18312;51.486;7.144;2022-12-11T01:30:16;123.93;;;25.65;;
31732;SDS011;18312;51.486;7.144;2022-12-11T01:32:43;116.15;;;25.90;;
31732;SDS011;18312;51.486;7.144;2022-12-11T01:35:11;109.70;;;23.98;;
31732;SDS011;18312;51.486;7.144;2022-12-11T01:37:38;121.53;;;26.15;;
31732;SDS011;18312;51.486;7.144;2022-12-11T01:40:07;130.68;;;27.90;;
31732;SDS011;18312;51.486;7.144;2022-12-11T01:42:37;115.35;;;27.70;;
31732;SDS011;18312;51.486;7.144;2022-12-11T01:47:58;127.85;;;26.67;;
31732;SDS011;18312;51.486;7.144;2022-12-11T01:50:29;122.88;;;28.35;;
31732;SDS011;18312;51.486;7.144;2022-12-11T01:52:59;135.25;;;28.73;;
31732;SDS011;18312;51.486;7.144;2022-12-11T01:55:29;132.85;;;28.00;;
31732;SDS011;18312;51.486;7.144;2022-12-11T01:57:56;133.45;;;28.70;;
31732;SDS011;18312;51.486;7.144;2022-12-11T02:00:23;123.40;;;26.80;;
31732;SDS011;18312;51.486;7.144;2022-12-11T02:02:50;123.65;;;29.80;;
31732;SDS011;18312;51.486;7.144;2022-12-11T02:05:17;133.32;;;27.42;;
31732;SDS011;18312;51.486;7.144;2022-12-11T02:07:45;131.07;;;31.27;;
31732;SDS011;18312;51.486;7.144;2022-12-11T02:10:15;153.57;;;27.70;;
31732;SDS011;18312;51.486;7.144;2022-12-11T02:12:49;136.20;;;29.23;;
31732;SDS011;18312;51.486;7.144;2022-12-11T02:15:24;123.50;;;27.35;;
31732;SDS011;18312;51.486;7.144;2022-12-11T02:17:58;111.53;;;26.48;;
31732;SDS011;18312;51.486;7.144;2022-12-11T02:20:33;132.25;;;29.23;;
31732;SDS011;18312;51.486;7.144;2022-12-11T02:23:08;115.70;;;27.67;;
31732;SDS011;18312;51.486;7.144;2022-12-11T02:25:49;121.38;;;27.90;;
31732;SDS011;18312;51.486;7.144;2022-12-11T02:28:24;114.97;;;27.88;;
31732;SDS011;18312;51.486;7.144;2022-12-11T02:30:56;106.03;;;25.15;;
31732;SDS011;18312;51.486;7.144;2022-12-11T02:33:28;110.53;;;26.55;;
31732;SDS011;18312;51.486;7.144;2022-12-11T02:35:59;107.60;;;25.17;;
31732;SDS011;18312;51.486;7.144;2022-12-11T02:38:29;117.90;;;23.35;;
31732;SDS011;18312;51.486;7.144;2022-12-11T02:40:58;116.00;;;25.00;;
31732;SDS011;18312;51.486;7.144;2022-12-11T02:43:29;108.03;;;24.80;;
31732;SDS011;18312;51.486;7.144;2022-12-11T02:45:58;110.07;;;23.67;;
31732;SDS011;18312;51.486;7.144;2022-12-11T02:48:27;111.23;;;24.20;;
31732;SDS011;18312;51.486;7.144;2022-12-11T02:50:55;112.30;;;23.40;;
31732;SDS011;18312;51.486;7.144;2022-12-11T02:53:25;103.53;;;22.95;;
31732;SDS011;18312;51.486;7.144;2022-12-11T02:55:55;106.47;;;24.23;;
31732;SDS011;18312;51.486;7.144;2022-12-11T02:58:29;109.20;;;23.30;;
31732;SDS011;18312;51.486;7.144;2022-12-11T03:00:57;112.18;;;24.30;;
31732;SDS011;18312;51.486;7.144;2022-12-11T03:03:24;98.05;;;21.80;;
31732;SDS011;18312;51.486;7.144;2022-12-11T03:05:53;88.53;;;21.30;;
31732;SDS011;18312;51.486;7.144;2022-12-11T03:08:20;85.40;;;21.10;;
31732;SDS011;18312;51.486;7.144;2022-12-11T03:10:47;84.43;;;21.33;;
31732;SDS011;18312;51.486;7.144;2022-12-11T03:13:14;80.65;;;20.70;;
31732;SDS011;18312;51.486;7.144;2022-12-11T03:15:48;84.03;;;21.00;;
31732;SDS011;18312;51.486;7.144;2022-12-11T03:18:24;88.38;;;20.83;;
31732;SDS011;18312;51.486;7.144;2022-12-11T03:20:57;75.97;;;19.20;;
31732;SDS011;18312;51.486;7.144;2022-12-11T03:23:31;85.15;;;20.10;;
31732;SDS011;18312;51.486;7.144;2022-12-11T03:26:02;77.85;;;20.80;;
31732;SDS011;18312;51.486;7.144;2022-12-11T03:28:30;73.35;;;20.17;;
31732;SDS011;18312;51.486;7.144;2022-12-11T03:31:06;83.82;;;19.92;;
31732;SDS011;18312;51.486;7.144;2022-12-11T03:33:38;79.55;;;22.20;;
31732;SDS011;18312;51.486;7.144;2022-12-11T03:38:36;63.05;;;19.70;;
31732;SDS011;18312;51.486;7.144;2022-12-11T03:41:06;84.07;;;22.08;;
31732;SDS011;18312;51.486;7.144;2022-12-11T03:43:34;109.40;;;22.00;;
31732;SDS011;18312;51.486;7.144;2022-12-11T03:46:01;84.18;;;20.60;;
31732;SDS011;18312;51.486;7.144;2022-12-11T03:48:31;79.00;;;22.90;;
31732;SDS011;18312;51.486;7.144;2022-12-11T03:51:01;86.07;;;23.33;;
31732;SDS011;18312;51.486;7.144;2022-12-11T03:56:02;80.55;;;21.02;;
31732;SDS011;18312;51.486;7.144;2022-12-11T03:58:31;83.78;;;20.73;;
31732;SDS011;18312;51.486;7.144;2022-12-11T04:00:57;74.32;;;19.15;;
31732;SDS011;18312;51.486;7.144;2022-12-11T04:03:24;79.72;;;20.75;;
31732;SDS011;18312;51.486;7.144;2022-12-11T04:05:53;73.68;;;20.73;;
31732;SDS011;18312;51.486;7.144;2022-12-11T04:08:21;77.28;;;21.50;;
31732;SDS011;18312;51.486;7.144;2022-12-11T04:10:49;85.68;;;23.25;;
31732;SDS011;18312;51.486;7.144;2022-12-11T04:13:37;68.38;;;18.38;;
31732;SDS011;18312;51.486;7.144;2022-12-11T04:16:05;72.90;;;19.23;;
31732;SDS011;18312;51.486;7.144;2022-12-11T04:18:32;78.10;;;19.45;;
31732;SDS011;18312;51.486;7.144;2022-12-11T04:21:26;71.38;;;17.40;;
31732;SDS011;18312;51.486;7.144;2022-12-11T04:24:10;76.90;;;18.75;;
31732;SDS011;18312;51.486;7.144;2022-12-11T04:26:42;75.28;;;18.92;;
31732;SDS011;18312;51.486;7.144;2022-12-11T04:29:10;68.00;;;19.63;;
31732;SDS011;18312;51.486;7.144;2022-12-11T04:31:37;71.72;;;18.83;;
31732;SDS011;18312;51.486;7.144;2022-12-11T04:34:04;82.65;;;20.33;;
31732;SDS011;18312;51.486;7.144;2022-12-11T04:36:32;68.47;;;18.88;;
31732;SDS011;18312;51.486;7.144;2022-12-11T04:38:59;63.13;;;16.92;;
31732;SDS011;18312;51.486;7.144;2022-12-11T04:41:26;77.22;;;18.38;;
31732;SDS011;18312;51.486;7.144;2022-12-11T04:43:53;75.28;;;16.73;;
31732;SDS011;18312;51.486;7.144;2022-12-11T04:46:21;67.35;;;17.67;;
31732;SDS011;18312;51.486;7.144;2022-12-11T04:48:48;72.55;;;18.75;;
31732;SDS011;18312;51.486;7.144;2022-12-11T04:51:16;69.47;;;16.50;;
31732;SDS011;18312;51.486;7.144;2022-12-11T04:53:44;71.07;;;20.25;;
31732;SDS011;18312;51.486;7.144;2022-12-11T04:56:12;68.07;;;20.05;;
31732;SDS011;18312;51.486;7.144;2022-12-11T04:58:40;45.50;;;12.98;;
31732;SDS011;18312;51.486;7.144;2022-12-11T05:01:08;69.93;;;18.02;;
31732;SDS011;18312;51.486;7.144;2022-12-11T05:03:35;74.85;;;18.25;;
31732;SDS011;18312;51.486;7.144;2022-12-11T05:06:02;72.10;;;18.90;;
31732;SDS011;18312;51.486;7.144;2022-12-11T05:08:29;72.90;;;19.58;;
31732;SDS011;18312;51.486;7.144;2022-12-11T05:10:58;70.68;;;17.52;;
31732;SDS011;18312;51.486;7.144;2022-12-11T05:13:26;68.65;;;18.80;;
31732;SDS011;18312;51.486;7.144;2022-12-11T05:15:54;69.88;;;19.77;;
31732;SDS011;18312;51.486;7.144;2022-12-11T05:18:22;71.80;;;19.90;;
31732;SDS011;18312;51.486;7.144;2022-12-11T05:20:53;66.35;;;19.35;;
31732;SDS011;18312;51.486;7.144;2022-12-11T05:23:20;68.25;;;18.60;;
31732;SDS011;18312;51.486;7.144;2022-12-11T05:25:50;76.80;;;19.35;;
31732;SDS011;18312;51.486;7.144;2022-12-11T05:28:18;67.38;;;17.58;;
31732;SDS011;18312;51.486;7.144;2022-12-11T05:30:45;76.70;;;21.50;;
31732;SDS011;18312;51.486;7.144;2022-12-11T05:33:12;75.00;;;20.85;;
31732;SDS011;18312;51.486;7.144;2022-12-11T05:35:44;73.05;;;19.20;;
31732;SDS011;18312;51.486;7.144;2022-12-11T05:38:12;70.68;;;17.88;;
31732;SDS011;18312;51.486;7.144;2022-12-11T05:40:39;62.97;;;18.23;;
31732;SDS011;18312;51.486;7.144;2022-12-11T05:43:05;84.30;;;20.42;;
31732;SDS011;18312;51.486;7.144;2022-12-11T05:45:34;81.72;;;21.17;;
31732;SDS011;18312;51.486;7.144;2022-12-11T05:48:00;76.07;;;19.60;;
31732;SDS011;18312;51.486;7.144;2022-12-11T05:50:27;78.05;;;20.38;;
31732;SDS011;18312;51.486;7.144;2022-12-11T05:52:54;73.32;;;20.42;;
31732;SDS011;18312;51.486;7.144;2022-12-11T05:55:21;78.07;;;21.08;;
31732;SDS011;18312;51.486;7.144;2022-12-11T05:57:47;70.88;;;20.45;;
31732;SDS011;18312;51.486;7.144;2022-12-11T06:00:15;76.10;;;18.50;;
31732;SDS011;18312;51.486;7.144;2022-12-11T06:02:43;58.28;;;18.92;;
31732;SDS011;18312;51.486;7.144;2022-12-11T06:05:11;63.47;;;18.42;;
31732;SDS011;18312;51.486;7.144;2022-12-11T06:07:38;69.07;;;17.75;;
31732;SDS011;18312;51.486;7.144;2022-12-11T06:10:05;66.32;;;18.42;;
31732;SDS011;18312;51.486;7.144;2022-12-11T06:12:32;72.50;;;19.23;;
31732;SDS011;18312;51.486;7.144;2022-12-11T06:14:59;70.38;;;17.58;;
31732;SDS011;18312;51.486;7.144;2022-12-11T06:17:26;66.22;;;19.05;;
31732;SDS011;18312;51.486;7.144;2022-12-11T06:19:54;65.28;;;18.55;;
31732;SDS011;18312;51.486;7.144;2022-12-11T06:22:20;63.22;;;16.98;;
31732;SDS011;18312;51.486;7.144;2022-12-11T06:24:47;66.63;;;18.30;;
31732;SDS011;18312;51.486;7.144;2022-12-11T06:27:14;79.45;;;17.95;;
31732;SDS011;18312;51.486;7.144;2022-12-11T06:29:43;53.95;;;17.27;;
31732;SDS011;18312;51.486;7.144;2022-12-11T06:32:11;68.30;;;17.23;;
31732;SDS011;18312;51.486;7.144;2022-12-11T06:34:38;60.72;;;17.70;;
31732;SDS011;18312;51.486;7.144;2022-12-11T06:37:06;63.47;;;18.52;;
31732;SDS011;18312;51.486;7.144;2022-12-11T06:39:33;61.10;;;19.50;;
31732;SDS011;18312;51.486;7.144;2022-12-11T06:41:59;61.28;;;19.35;;
31732;SDS011;18312;51.486;7.144;2022-12-11T06:44:26;53.83;;;17.40;;
31732;SDS011;18312;51.486;7.144;2022-12-11T06:46:53;68.03;;;18.90;;
31732;SDS011;18312;51.486;7.144;2022-12-11T06:49:20;69.63;;;18.85;;
31732;SDS011;18312;51.486;7.144;2022-12-11T06:51:47;70.15;;;18.77;;
31732;SDS011;18312;51.486;7.144;2022-12-11T06:54:15;61.10;;;18.35;;
31732;SDS011;18312;51.486;7.144;2022-12-11T06:56:42;68.60;;;19.17;;
31732;SDS011;18312;51.486;7.144;2022-12-11T06:59:09;70.78;;;18.38;;
31732;SDS011;18312;51.486;7.144;2022-12-11T07:01:37;60.13;;;19.92;;
31732;SDS011;18312;51.486;7.144;2022-12-11T07:04:04;75.22;;;19.08;;
31732;SDS011;18312;51.486;7.144;2022-12-11T07:06:31;68.45;;;18.23;;
31732;SDS011;18312;51.486;7.144;2022-12-11T07:08:58;72.05;;;19.67;;
31732;SDS011;18312;51.486;7.144;2022-12-11T07:11:26;68.63;;;19.80;;
31732;SDS011;18312;51.486;7.144;2022-12-11T07:13:53;66.50;;;17.65;;
31732;SDS011;18312;51.486;7.144;2022-12-11T07:16:20;71.53;;;18.70;;
31732;SDS011;18312;51.486;7.144;2022-12-11T07:18:48;66.50;;;20.23;;
31732;SDS011;18312;51.486;7.144;2022-12-11T07:21:16;62.45;;;19.45;;
31732;SDS011;18312;51.486;7.144;2022-12-11T07:23:44;68.25;;;17.73;;
31732;SDS011;18312;51.486;7.144;2022-12-11T07:26:12;68.97;;;19.65;;
31732;SDS011;18312;51.486;7.144;2022-12-11T07:28:42;67.78;;;18.70;;
31732;SDS011;18312;51.486;7.144;2022-12-11T07:31:10;66.93;;;17.50;;
31732;SDS011;18312;51.486;7.144;2022-12-11T07:33:37;75.97;;;19.48;;
31732;SDS011;18312;51.486;7.144;2022-12-11T07:36:07;87.00;;;19.77;;
31732;SDS011;18312;51.486;7.144;2022-12-11T07:38:35;74.25;;;18.92;;
31732;SDS011;18312;51.486;7.144;2022-12-11T07:41:02;72.47;;;20.55;;
31732;SDS011;18312;51.486;7.144;2022-12-11T07:43:30;69.93;;;19.98;;
31732;SDS011;18312;51.486;7.144;2022-12-11T07:46:00;67.68;;;17.70;;
31732;SDS011;18312;51.486;7.144;2022-12-11T07:50:54;75.80;;;18.40;;
31732;SDS011;18312;51.486;7.144;2022-12-11T07:53:21;64.13;;;17.45;;
31732;SDS011;18312;51.486;7.144;2022-12-11T07:55:48;71.68;;;19.42;;
31732;SDS011;18312;51.486;7.144;2022-12-11T07:58:15;67.22;;;19.33;;
31732;SDS011;18312;51.486;7.144;2022-12-11T08:00:42;65.72;;;16.25;;
31732;SDS011;18312;51.486;7.144;2022-12-11T08:03:10;63.53;;;18.95;;
31732;SDS011;18312;51.486;7.144;2022-12-11T08:05:37;77.68;;;18.67;;
31732;SDS011;18312;51.486;7.144;2022-12-11T08:08:04;65.47;;;18.13;;
31732;SDS011;18312;51.486;7.144;2022-12-11T08:10:34;79.35;;;19.38;;
31732;SDS011;18312;51.486;7.144;2022-12-11T08:13:00;71.82;;;21.17;;
31732;SDS011;18312;51.486;7.144;2022-12-11T08:15:27;55.03;;;17.20;;
31732;SDS011;18312;51.486;7.144;2022-12-11T08:17:54;77.72;;;18.08;;
31732;SDS011;18312;51.486;7.144;2022-12-11T08:20:22;66.28;;;18.33;;
31732;SDS011;18312;51.486;7.144;2022-12-11T08:22:49;63.65;;;18.45;;
31732;SDS011;18312;51.486;7.144;2022-12-11T08:25:16;75.15;;;19.35;;
31732;SDS011;18312;51.486;7.144;2022-12-11T08:27:42;67.28;;;19.00;;
31732;SDS011;18312;51.486;7.144;2022-12-11T08:30:10;77.82;;;21.42;;
31732;SDS011;18312;51.486;7.144;2022-12-11T08:32:37;69.63;;;21.40;;
31732;SDS011;18312;51.486;7.144;2022-12-11T08:35:04;62.40;;;17.25;;
31732;SDS011;18312;51.486;7.144;2022-12-11T08:37:33;72.40;;;19.77;;
31732;SDS011;18312;51.486;7.144;2022-12-11T08:40:00;47.58;;;14.45;;
31732;SDS011;18312;51.486;7.144;2022-12-11T08:42:27;58.08;;;17.92;;
31732;SDS011;18312;51.486;7.144;2022-12-11T08:44:54;68.47;;;17.75;;
31732;SDS011;18312;51.486;7.144;2022-12-11T08:47:20;64.90;;;17.65;;
31732;SDS011;18312;51.486;7.144;2022-12-11T08:49:47;61.35;;;18.48;;
31732;SDS011;18312;51.486;7.144;2022-12-11T08:52:14;70.68;;;18.90;;
31732;SDS011;18312;51.486;7.144;2022-12-11T08:54:42;74.78;;;19.08;;
31732;SDS011;18312;51.486;7.144;2022-12-11T08:57:09;50.17;;;19.20;;
31732;SDS011;18312;51.486;7.144;2022-12-11T08:59:35;63.40;;;17.92;;
31732;SDS011;18312;51.486;7.144;2022-12-11T09:02:02;60.13;;;19.38;;
31732;SDS011;18312;51.486;7.144;2022-12-11T09:04:29;60.85;;;18.33;;
31732;SDS011;18312;51.486;7.144;2022-12-11T09:06:56;68.82;;;19.58;;
31732;SDS011;18312;51.486;7.144;2022-12-11T09:09:23;68.35;;;19.98;;
31732;SDS011;18312;51.486;7.144;2022-12-11T09:11:51;62.90;;;18.40;;
31732;SDS011;18312;51.486;7.144;2022-12-11T09:14:18;67.05;;;18.13;;
31732;SDS011;18312;51.486;7.144;2022-12-11T09:16:45;63.90;;;20.23;;
31732;SDS011;18312;51.486;7.144;2022-12-11T09:19:12;69.18;;;19.95;;
31732;SDS011;18312;51.486;7.144;2022-12-11T09:21:40;71.32;;;21.10;;
31732;SDS011;18312;51.486;7.144;2022-12-11T09:24:09;65.82;;;20.52;;
31732;SDS011;18312;51.486;7.144;2022-12-11T09:26:38;73.97;;;21.23;;
31732;SDS011;18312;51.486;7.144;2022-12-11T09:29:07;81.72;;;22.25;;
31732;SDS011;18312;51.486;7.144;2022-12-11T09:31:35;69.28;;;20.45;;
31732;SDS011;18312;51.486;7.144;2022-12-11T09:34:03;71.57;;;20.88;;
31732;SDS011;18312;51.486;7.144;2022-12-11T09:36:31;76.70;;;21.17;;
31732;SDS011;18312;51.486;7.144;2022-12-11T09:38:58;68.30;;;21.10;;
31732;SDS011;18312;51.486;7.144;2022-12-11T09:41:29;67.47;;;19.10;;
31732;SDS011;18312;51.486;7.144;2022-12-11T09:44:01;71.57;;;20.70;;
31732;SDS011;18312;51.486;7.144;2022-12-11T09:46:44;72.05;;;20.33;;
31732;SDS011;18312;51.486;7.144;2022-12-11T09:49:14;68.35;;;20.65;;
31732;SDS011;18312;51.486;7.144;2022-12-11T09:51:48;67.28;;;19.63;;
31732;SDS011;18312;51.486;7.144;2022-12-11T09:54:19;62.92;;;21.52;;
31732;SDS011;18312;51.486;7.144;2022-12-11T09:56:48;73.18;;;20.50;;
31732;SDS011;18312;51.486;7.144;2022-12-11T09:59:24;58.15;;;18.58;;
31732;SDS011;18312;51.486;7.144;2022-12-11T10:01:57;63.70;;;19.55;;
31732;SDS011;18312;51.486;7.144;2022-12-11T10:04:39;62.80;;;18.40;;
31732;SDS011;18312;51.486;7.144;2022-12-11T10:07:17;68.55;;;18.30;;
31732;SDS011;18312;51.486;7.144;2022-12-11T10:09:48;58.67;;;18.50;;
31732;SDS011;18312;51.486;7.144;2022-12-11T10:12:26;67.97;;;21.67;;
31732;SDS011;18312;51.486;7.144;2022-12-11T10:15:15;71.60;;;21.45;;
31732;SDS011;18312;51.486;7.144;2022-12-11T10:17:52;58.58;;;19.15;;
31732;SDS011;18312;51.486;7.144;2022-12-11T10:20:21;55.33;;;17.90;;
31732;SDS011;18312;51.486;7.144;2022-12-11T10:22:51;62.47;;;18.98;;
31732;SDS011;18312;51.486;7.144;2022-12-11T10:25:20;66.25;;;19.50;;
31732;SDS011;18312;51.486;7.144;2022-12-11T10:27:50;65.15;;;19.25;;
31732;SDS011;18312;51.486;7.144;2022-12-11T10:30:20;71.30;;;19.95;;
31732;SDS011;18312;51.486;7.144;2022-12-11T10:32:49;77.68;;;19.58;;
31732;SDS011;18312;51.486;7.144;2022-12-11T10:35:23;70.07;;;19.85;;
31732;SDS011;18312;51.486;7.144;2022-12-11T10:37:55;70.57;;;22.45;;
31732;SDS011;18312;51.486;7.144;2022-12-11T10:40:27;66.32;;;21.45;;
31732;SDS011;18312;51.486;7.144;2022-12-11T10:42:56;67.65;;;19.88;;
31732;SDS011;18312;51.486;7.144;2022-12-11T10:45:24;76.80;;;20.38;;
31732;SDS011;18312;51.486;7.144;2022-12-11T10:48:00;72.88;;;20.52;;
31732;SDS011;18312;51.486;7.144;2022-12-11T10:50:28;64.38;;;21.45;;
31732;SDS011;18312;51.486;7.144;2022-12-11T10:52:55;59.20;;;19.40;;
31732;SDS011;18312;51.486;7.144;2022-12-11T10:55:23;60.70;;;17.80;;
31732;SDS011;18312;51.486;7.144;2022-12-11T10:57:56;62.30;;;17.48;;
31732;SDS011;18312;51.486;7.144;2022-12-11T11:00:29;61.35;;;19.20;;
31732;SDS011;18312;51.486;7.144;2022-12-11T11:02:59;60.38;;;19.08;;
31732;SDS011;18312;51.486;7.144;2022-12-11T11:05:27;66.28;;;20.73;;
31732;SDS011;18312;51.486;7.144;2022-12-11T11:08:03;56.03;;;19.27;;
31732;SDS011;18312;51.486;7.144;2022-12-11T11:10:48;60.50;;;17.60;;
31732;SDS011;18312;51.486;7.144;2022-12-11T11:13:16;61.58;;;17.92;;
31732;SDS011;18312;51.486;7.144;2022-12-11T11:15:45;60.28;;;17.70;;
31732;SDS011;18312;51.486;7.144;2022-12-11T11:18:15;57.75;;;16.55;;
31732;SDS011;18312;51.486;7.144;2022-12-11T11:20:49;60.13;;;16.38;;
31732;SDS011;18312;51.486;7.144;2022-12-11T11:23:16;54.30;;;17.23;;
31732;SDS011;18312;51.486;7.144;2022-12-11T11:25:49;58.67;;;17.03;;
31732;SDS011;18312;51.486;7.144;2022-12-11T11:28:19;60.28;;;16.65;;
31732;SDS011;18312;51.486;7.144;2022-12-11T11:30:57;58.25;;;16.63;;
31732;SDS011;18312;51.486;7.144;2022-12-11T11:33:27;45.78;;;16.80;;
31732;SDS011;18312;51.486;7.144;2022-12-11T11:35:55;60.95;;;18.52;;
31732;SDS011;18312;51.486;7.144;2022-12-11T11:38:25;58.78;;;17.23;;
31732;SDS011;18312;51.486;7.144;2022-12-11T11:40:57;43.80;;;14.57;;
31732;SDS011;18312;51.486;7.144;2022-12-11T11:43:31;58.30;;;15.50;;
31732;SDS011;18312;51.486;7.144;2022-12-11T11:46:06;52.90;;;14.32;;
31732;SDS011;18312;51.486;7.144;2022-12-11T11:48:39;44.03;;;15.45;;
31732;SDS011;18312;51.486;7.144;2022-12-11T11:51:15;51.58;;;15.63;;
31732;SDS011;18312;51.486;7.144;2022-12-11T11:53:48;52.03;;;15.00;;
31732;SDS011;18312;51.486;7.144;2022-12-11T11:56:21;50.05;;;16.27;;
31732;SDS011;18312;51.486;7.144;2022-12-11T11:58:56;48.70;;;15.25;;
31732;SDS011;18312;51.486;7.144;2022-12-11T12:01:29;46.72;;;16.10;;
31732;SDS011;18312;51.486;7.144;2022-12-11T12:03:56;55.55;;;16.70;;
31732;SDS011;18312;51.486;7.144;2022-12-11T12:06:26;50.95;;;16.17;;
31732;SDS011;18312;51.486;7.144;2022-12-11T12:09:04;52.53;;;16.45;;
31732;SDS011;18312;51.486;7.144;2022-12-11T12:11:44;58.83;;;17.38;;
31732;SDS011;18312;51.486;7.144;2022-12-11T12:14:19;48.03;;;15.15;;
31732;SDS011;18312;51.486;7.144;2022-12-11T12:16:54;50.20;;;15.98;;
31732;SDS011;18312;51.486;7.144;2022-12-11T12:19:35;54.08;;;15.93;;
31732;SDS011;18312;51.486;7.144;2022-12-11T12:22:12;51.63;;;16.92;;
31732;SDS011;18312;51.486;7.144;2022-12-11T12:24:52;50.90;;;15.57;;
31732;SDS011;18312;51.486;7.144;2022-12-11T12:27:28;53.28;;;15.65;;
31732;SDS011;18312;51.486;7.144;2022-12-11T12:30:03;53.60;;;16.30;;
31732;SDS011;18312;51.486;7.144;2022-12-11T12:32:38;49.50;;;16.35;;
31732;SDS011;18312;51.486;7.144;2022-12-11T12:35:18;50.42;;;15.45;;
31732;SDS011;18312;51.486;7.144;2022-12-11T12:37:54;65.53;;;17.83;;
31732;SDS011;18312;51.486;7.144;2022-12-11T12:40:27;57.78;;;16.48;;
31732;SDS011;18312;51.486;7.144;2022-12-11T12:42:59;49.22;;;14.10;;
31732;SDS011;18312;51.486;7.144;2022-12-11T12:45:36;46.90;;;16.25;;
31732;SDS011;18312;51.486;7.144;2022-12-11T12:48:12;45.28;;;17.27;;
31732;SDS011;18312;51.486;7.144;2022-12-11T12:50:39;50.47;;;17.48;;
31732;SDS011;18312;51.486;7.144;2022-12-11T12:53:08;58.13;;;16.48;;
31732;SDS011;18312;51.486;7.144;2022-12-11T12:55:42;57.70;;;15.40;;
31732;SDS011;18312;51.486;7.144;2022-12-11T12:58:21;56.25;;;16.85;;
31732;SDS011;18312;51.486;7.144;2022-12-11T13:00:51;39.85;;;15.30;;
31732;SDS011;18312;51.486;7.144;2022-12-11T13:03:19;72.03;;;28.10;;
31732;SDS011;18312;51.486;7.144;2022-12-11T13:05:56;89.18;;;42.58;;
31732;SDS011;18312;51.486;7.144;2022-12-11T13:08:25;42.00;;;14.52;;
31732;SDS011;18312;51.486;7.144;2022-12-11T13:11:00;42.27;;;14.37;;
31732;SDS011;18312;51.486;7.144;2022-12-11T13:16:33;43.30;;;13.70;;
31732;SDS011;18312;51.486;7.144;2022-12-11T13:19:03;42.50;;;14.15;;
31732;SDS011;18312;51.486;7.144;2022-12-11T13:21:43;45.40;;;16.75;;
31732;SDS011;18312;51.486;7.144;2022-12-11T13:24:23;52.80;;;20.00;;
31732;SDS011;18312;51.486;7.144;2022-12-11T13:26:52;35.35;;;13.43;;
31732;SDS011;18312;51.486;7.144;2022-12-11T13:29:28;46.33;;;14.13;;
31732;SDS011;18312;51.486;7.144;2022-12-11T13:32:00;46.38;;;15.60;;
31732;SDS011;18312;51.486;7.144;2022-12-11T13:34:32;50.25;;;18.67;;
31732;SDS011;18312;51.486;7.144;2022-12-11T13:37:01;40.78;;;15.25;;
31732;SDS011;18312;51.486;7.144;2022-12-11T13:39:30;51.55;;;14.65;;
31732;SDS011;18312;51.486;7.144;2022-12-11T13:42:00;44.30;;;16.48;;
31732;SDS011;18312;51.486;7.144;2022-12-11T13:44:30;59.63;;;18.00;;
31732;SDS011;18312;51.486;7.144;2022-12-11T13:47:03;40.60;;;13.45;;
31732;SDS011;18312;51.486;7.144;2022-12-11T13:49:35;39.15;;;13.98;;
31732;SDS011;18312;51.486;7.144;2022-12-11T13:52:04;44.53;;;14.52;;
31732;SDS011;18312;51.486;7.144;2022-12-11T13:54:33;57.45;;;20.10;;
31732;SDS011;18312;51.486;7.144;2022-12-11T13:57:02;40.38;;;15.95;;
31732;SDS011;18312;51.486;7.144;2022-12-11T13:59:41;51.37;;;18.77;;
31732;SDS011;18312;51.486;7.144;2022-12-11T14:02:13;41.20;;;14.50;;
31732;SDS011;18312;51.486;7.144;2022-12-11T14:04:49;39.28;;;14.00;;
31732;SDS011;18312;51.486;7.144;2022-12-11T14:07:21;47.83;;;14.50;;
31732;SDS011;18312;51.486;7.144;2022-12-11T14:09:51;44.72;;;13.55;;
31732;SDS011;18312;51.486;7.144;2022-12-11T14:12:28;47.53;;;15.13;;
31732;SDS011;18312;51.486;7.144;2022-12-11T14:14:56;47.58;;;17.27;;
31732;SDS011;18312;51.486;7.144;2022-12-11T14:17:27;46.17;;;15.15;;
31732;SDS011;18312;51.486;7.144;2022-12-11T14:20:05;54.67;;;18.00;;
31732;SDS011;18312;51.486;7.144;2022-12-11T14:22:40;45.60;;;17.75;;
31732;SDS011;18312;51.486;7.144;2022-12-11T14:25:15;46.72;;;14.20;;
31732;SDS011;18312;51.486;7.144;2022-12-11T14:27:48;40.03;;;14.35;;
31732;SDS011;18312;51.486;7.144;2022-12-11T14:30:20;45.83;;;14.48;;
31732;SDS011;18312;51.486;7.144;2022-12-11T14:32:48;48.20;;;14.68;;
31732;SDS011;18312;51.486;7.144;2022-12-11T14:35:20;59.65;;;19.75;;
31732;SDS011;18312;51.486;7.144;2022-12-11T14:37:50;45.38;;;16.60;;
31732;SDS011;18312;51.486;7.144;2022-12-11T14:40:18;46.45;;;14.68;;
31732;SDS011;18312;51.486;7.144;2022-12-11T14:42:49;44.78;;;14.27;;
31732;SDS011;18312;51.486;7.144;2022-12-11T14:45:22;47.33;;;14.68;;
31732;SDS011;18312;51.486;7.144;2022-12-11T14:47:55;46.00;;;13.63;;
31732;SDS011;18312;51.486;7.144;2022-12-11T14:50:26;43.67;;;15.00;;